createdAt,value
2023-01-02T00:02:03.579Z,10.44
2023-01-02T00:07:07.200Z,10.39
2023-01-02T00:12:10.814Z,10.38
2023-01-02T00:17:14.434Z,10.40
2023-01-02T00:22:17.953Z,10.42
2023-01-02T00:27:21.577Z,10.43
2023-01-02T00:32:25.192Z,10.42
2023-01-02T00:37:28.698Z,10.41
2023-01-02T00:42:32.225Z,10.39
2023-01-02T00:47:35.952Z,10.42
2023-01-02T00:52:39.352Z,10.42
2023-01-02T00:57:45.425Z,10.43
2023-01-02T01:02:49.097Z,10.48
2023-01-02T01:07:54.611Z,10.52
2023-01-02T01:12:58.122Z,10.56
2023-01-02T01:18:01.968Z,10.56
2023-01-02T01:23:05.767Z,10.59
2023-01-02T01:28:09.281Z,10.60
2023-01-02T01:33:12.901Z,10.63
2023-01-02T01:38:16.414Z,10.67
2023-01-02T01:43:43.597Z,10.71
2023-01-02T01:48:50.481Z,10.71
2023-01-02T01:54:00.553Z,10.70
2023-01-02T01:59:05.191Z,10.73
2023-01-02T02:04:10.878Z,10.75
2023-01-02T02:09:19.402Z,10.77
2023-01-02T02:14:22.803Z,10.79
2023-01-02T02:19:59.196Z,10.79
2023-01-02T02:25:30.250Z,10.76
2023-01-02T02:30:43.599Z,10.74
2023-01-02T02:36:07.697Z,10.70
2023-01-02T02:42:05.176Z,10.64
2023-01-02T02:47:17.607Z,10.65
2023-01-02T02:52:29.313Z,10.67
2023-01-02T02:57:33.755Z,10.66
2023-01-02T03:02:37.589Z,10.66
2023-01-02T03:08:02.188Z,10.69
2023-01-02T03:13:41.626Z,10.65
2023-01-02T03:19:09.528Z,10.71
2023-01-02T03:24:18.678Z,10.73
2023-01-02T03:29:48.504Z,10.76
2023-01-02T03:34:54.056Z,10.77
2023-01-02T03:40:03.114Z,10.78
2023-01-02T03:45:14.931Z,10.75
2023-01-02T03:50:45.779Z,10.69
2023-01-02T03:56:00.156Z,10.68
2023-01-02T04:01:12.465Z,10.67
2023-01-02T04:06:21.936Z,10.71
2023-01-02T04:11:27.715Z,10.70
2023-01-02T04:16:36.686Z,10.71
2023-01-02T04:21:42.208Z,10.74
2023-01-02T04:26:51.656Z,10.77
2023-01-02T04:32:22.823Z,10.83
2023-01-02T04:37:41.389Z,10.87
2023-01-02T04:42:45.215Z,10.88
2023-01-02T04:47:49.751Z,10.93
2023-01-02T04:52:53.275Z,11.02
2023-01-02T04:57:58.143Z,11.06
2023-01-02T05:03:05.546Z,11.04
2023-01-02T05:08:15.662Z,11.01
2023-01-02T05:13:19.921Z,11.00
2023-01-02T05:18:23.647Z,11.01
2023-01-02T05:23:45.595Z,11.03
2023-01-02T05:28:53.462Z,11.02
2023-01-02T05:33:59.747Z,11.09
2023-01-02T05:39:03.512Z,11.09
2023-01-02T05:44:11.304Z,11.03
2023-01-02T05:49:14.743Z,11.00
2023-01-02T05:54:18.258Z,10.91
2023-01-02T05:59:21.974Z,10.77
2023-01-02T06:04:25.490Z,10.68
2023-01-02T06:09:29.008Z,10.64
2023-01-02T06:14:32.639Z,10.58
2023-01-02T06:19:36.357Z,10.52
2023-01-02T06:24:40.069Z,10.45
2023-01-02T06:29:43.582Z,10.35
2023-01-02T06:34:47.210Z,10.33
2023-01-02T06:39:50.719Z,10.30
2023-01-02T06:44:54.234Z,10.26
2023-01-02T06:49:58.362Z,10.26
2023-01-02T06:55:01.781Z,10.22
2023-01-02T07:00:05.903Z,10.20
2023-01-02T07:05:11.271Z,10.22
2023-01-02T07:10:14.778Z,10.29
2023-01-02T07:15:18.715Z,10.30
2023-01-02T07:20:22.528Z,10.31
2023-01-02T07:25:26.043Z,10.30
2023-01-02T07:30:29.611Z,10.32
2023-01-02T07:35:33.383Z,10.34
2023-01-02T07:40:37.100Z,10.36
2023-01-02T07:45:44.919Z,10.34
2023-01-02T07:50:51.505Z,10.38
2023-01-02T07:55:56.967Z,10.42
2023-01-02T08:01:09.833Z,10.55
2023-01-02T08:06:15.596Z,10.60
2023-01-02T08:11:22.277Z,10.65
2023-01-02T08:16:25.915Z,10.72
2023-01-02T08:21:29.292Z,10.74
2023-01-02T08:26:33.007Z,10.77
2023-01-02T08:31:41.813Z,10.83
2023-01-02T08:36:47.219Z,10.88
2023-01-02T08:41:50.829Z,10.93
2023-01-02T08:46:54.238Z,11.00
2023-01-02T08:51:57.757Z,11.09
2023-01-02T08:57:01.884Z,11.19
2023-01-02T09:02:05.618Z,11.30
2023-01-02T09:07:09.538Z,11.34
2023-01-02T09:12:13.046Z,11.39
2023-01-02T09:17:16.668Z,11.45
2023-01-02T09:22:20.387Z,11.55
2023-01-02T09:27:23.900Z,11.73
2023-01-02T09:32:27.426Z,11.86
2023-01-02T09:37:30.946Z,11.96
2023-01-02T09:42:34.752Z,12.02
2023-01-02T09:47:41.867Z,12.05
2023-01-02T09:52:54.810Z,12.07
2023-01-02T09:58:18.273Z,12.03
2023-01-02T10:03:40.681Z,11.99
2023-01-02T10:09:14.555Z,11.97
2023-01-02T10:14:44.754Z,11.99
2023-01-02T10:19:54.767Z,12.09
2023-01-02T10:25:19.074Z,12.21
2023-01-02T10:30:24.463Z,12.34
2023-01-02T10:35:47.612Z,12.49
2023-01-02T10:40:52.067Z,12.67
2023-01-02T10:45:56.072Z,12.85
2023-01-02T10:51:04.731Z,13.02
2023-01-02T10:56:20.658Z,13.20
2023-01-02T11:01:24.455Z,13.44
2023-01-02T11:06:39.461Z,13.69
2023-01-02T11:11:51.234Z,13.87
2023-01-02T11:16:58.839Z,13.80
2023-01-02T11:22:02.560Z,13.68
2023-01-02T11:27:06.082Z,13.44
2023-01-02T11:32:23.013Z,13.21
2023-01-02T11:37:27.749Z,13.04
2023-01-02T11:43:07.411Z,12.97
2023-01-02T11:48:15.751Z,12.94
2023-01-02T11:53:29.499Z,12.96
2023-01-02T11:58:45.402Z,12.99
2023-01-02T12:03:49.256Z,13.01
2023-01-02T12:08:58.997Z,13.06
2023-01-02T12:14:18.887Z,13.09
2023-01-02T12:19:47.183Z,13.14
2023-01-02T12:25:02.375Z,13.15
2023-01-02T12:30:13.735Z,13.17
2023-01-02T12:35:33.261Z,13.20
2023-01-02T12:40:50.196Z,13.21
2023-01-02T12:46:11.567Z,13.24
2023-01-02T12:51:41.776Z,13.19
2023-01-02T12:56:51.552Z,13.07
2023-01-02T13:02:25.625Z,12.97
2023-01-02T13:07:36.040Z,12.85
2023-01-02T13:12:40.067Z,12.80
2023-01-02T13:17:51.269Z,12.78
2023-01-02T13:23:13.108Z,12.77
2023-01-02T13:28:17.851Z,12.75
2023-01-02T13:33:30.282Z,12.74
2023-01-02T13:38:36.788Z,12.71
2023-01-02T13:43:40.483Z,12.66
2023-01-02T13:48:47.788Z,12.62
2023-01-02T13:53:53.054Z,12.64
2023-01-02T13:58:56.665Z,12.59
2023-01-02T14:04:13.385Z,12.58
2023-01-02T14:09:21.204Z,12.59
2023-01-02T14:14:52.062Z,12.56
2023-01-02T14:20:20.218Z,12.53
2023-01-02T14:25:24.697Z,12.50
2023-01-02T14:30:30.971Z,12.47
2023-01-02T14:35:39.815Z,12.44
2023-01-02T14:40:44.886Z,12.39
2023-01-02T14:45:53.102Z,12.36
2023-01-02T14:51:01.858Z,12.34
2023-01-02T14:56:16.917Z,12.33
2023-01-02T15:01:43.844Z,12.35
2023-01-02T15:07:09.913Z,12.37
2023-01-02T15:12:43.756Z,12.38
2023-01-02T15:17:49.701Z,12.36
2023-01-02T15:22:54.919Z,12.36
2023-01-02T15:27:58.396Z,12.35
2023-01-02T15:33:02.241Z,12.32
2023-01-02T15:38:18.840Z,12.28
2023-01-02T15:43:41.912Z,12.25
2023-01-02T15:48:46.241Z,12.21
2023-01-02T15:53:54.334Z,12.18
2023-01-02T15:59:01.572Z,12.13
2023-01-02T16:04:05.815Z,12.08
2023-01-02T16:09:20.432Z,12.02
2023-01-02T16:14:53.592Z,11.92
2023-01-02T16:20:00.577Z,11.84
2023-01-02T16:25:12.193Z,11.78
2023-01-02T16:30:38.081Z,11.75
2023-01-02T16:36:00.599Z,11.74
2023-01-02T16:41:12.114Z,11.72
2023-01-02T16:46:16.572Z,11.71
2023-01-02T16:51:20.665Z,11.71
2023-01-02T16:56:24.606Z,11.74
2023-01-02T17:01:28.219Z,11.74
2023-01-02T17:06:31.943Z,11.76
2023-01-02T17:11:35.755Z,11.78
2023-01-02T17:16:39.252Z,11.82
2023-01-02T17:21:42.890Z,11.89
2023-01-02T17:26:47.426Z,11.92
2023-01-02T17:31:50.871Z,11.96
2023-01-02T17:36:55.502Z,12.00
2023-01-02T17:41:58.998Z,12.00
2023-01-02T17:47:30.799Z,12.02
2023-01-02T17:52:26.924Z,12.01
2023-01-02T17:57:30.439Z,12.02
2023-01-02T18:02:34.259Z,12.01
2023-01-02T18:07:38.180Z,11.99
2023-01-02T18:12:43.033Z,12.00
2023-01-02T18:17:46.538Z,12.00
2023-01-02T18:22:51.127Z,12.03
2023-01-02T18:28:21.237Z,12.09
2023-01-02T18:33:27.065Z,12.11
2023-01-02T18:38:36.750Z,12.11
2023-01-02T18:43:41.807Z,12.07
2023-01-02T18:48:45.938Z,12.04
2023-01-02T18:53:50.780Z,12.08
2023-01-02T18:59:13.038Z,12.05
2023-01-02T19:04:28.307Z,12.01
2023-01-02T19:09:34.894Z,11.99
2023-01-02T19:14:41.619Z,11.97
2023-01-02T19:19:46.048Z,11.96
2023-01-02T19:24:50.187Z,11.97
2023-01-02T19:29:54.305Z,11.94
2023-01-02T19:35:03.142Z,11.95
2023-01-02T19:40:19.757Z,11.96
2023-01-02T19:45:28.158Z,11.95
2023-01-02T19:50:32.334Z,11.98
2023-01-02T19:55:36.970Z,12.04
2023-01-02T20:00:40.584Z,12.07
2023-01-02T20:05:44.107Z,12.10
2023-01-02T20:10:48.019Z,12.13
2023-01-02T20:15:51.624Z,12.09
2023-01-02T20:20:55.277Z,12.07
2023-01-02T20:25:58.783Z,12.11
2023-01-02T20:31:02.542Z,12.14
2023-01-02T20:36:13.178Z,12.17
2023-01-02T20:41:17.113Z,12.20
2023-01-02T20:46:20.872Z,12.24
2023-01-02T20:51:24.459Z,12.27
2023-01-02T20:56:29.101Z,12.34
2023-01-02T21:01:32.689Z,12.39
2023-01-02T21:06:36.735Z,12.43
2023-01-02T21:11:40.354Z,12.44
2023-01-02T21:16:43.922Z,12.45
2023-01-02T21:21:47.586Z,12.46
2023-01-02T21:26:51.109Z,12.43
2023-01-02T21:31:54.762Z,12.41
2023-01-02T21:37:00.182Z,12.38
2023-01-02T21:42:16.134Z,12.37
2023-01-02T21:47:19.723Z,12.36
2023-01-02T21:52:23.224Z,12.35
2023-01-02T21:58:02.630Z,12.36
2023-01-02T22:02:53.672Z,12.34
2023-01-02T22:07:58.168Z,12.35
2023-01-02T22:13:01.868Z,12.34
2023-01-02T22:18:05.592Z,12.30
2023-01-02T22:23:09.198Z,12.29
2023-01-02T22:28:12.713Z,12.24
2023-01-02T22:33:16.304Z,12.18
2023-01-02T22:38:19.949Z,12.10
2023-01-02T22:43:24.853Z,12.02
2023-01-02T22:48:32.845Z,11.98
2023-01-02T22:53:37.675Z,11.94
2023-01-02T22:58:41.799Z,11.84
2023-01-02T23:03:46.917Z,11.61
2023-01-02T23:08:51.735Z,11.21
2023-01-02T23:13:56.951Z,10.85
2023-01-02T23:19:15.939Z,10.60
2023-01-02T23:24:27.173Z,10.37
2023-01-02T23:29:30.842Z,10.21
2023-01-02T23:34:34.256Z,10.08
2023-01-02T23:39:37.873Z,9.92
2023-01-02T23:44:42.314Z,9.78
2023-01-02T23:49:45.630Z,9.64
2023-01-02T23:54:49.154Z,9.50
2023-01-02T23:59:52.654Z,9.37
